Kang Man — VRAC3 — position and weather

sailwx.info

Track history (hours):
 
Tides and Currents Weather Stations Pressure Air Temp Water Temp Dewpoint Dewpoint Depression Visibility Wind Speed Wind Dir Waves Ship Positions

Kang Man

Last reported at 2018-Jan-22 03:20 UTC. Time now 2018-Jan-22 22:12 UTC.
Position N 07°08' W 014°53'.

Length 190 m; draft 10.7 m.

Type: Cargo ship. MMSI: 477360500.

Date/timePositionNaut miles runAvg speedWind from/ knotsBaromVisibWave heightAir tempDewpointWater temp
2018-Jan-22 03:20N 07°08' W 014°53'514.4
2018-Jan-22 03:00N 07°12' W 014°56'714.3
2018-Jan-22 02:30N 07°17' W 015°01'714.3
2018-Jan-22 02:00N 07°23' W 015°06'714.4
2018-Jan-22 01:30N 07°28' W 015°10'2113.9
2018-Jan-21 23:58N 07°45' W 015°24'1914.6
2018-Jan-21 22:39N 07°59' W 015°37'1 4.9
2018-Jan-21 22:30N 07°60' W 015°38'714.8
2018-Jan-21 22:00N 08°05' W 015°42'612.2
2018-Jan-21 21:30N 08°10' W 015°46'914.3
2018-Jan-21 20:54N 08°16' W 015°52'511.9
2018-Jan-21 20:30N 08°20' W 015°56'713.5
2018-Jan-21 20:00N 08°25' W 016°00'813.5
2018-Jan-21 19:26N 08°30' W 016°05'613.4
2018-Jan-21 19:00N 08°35' W 016°09'713.3
2018-Jan-21 18:30N 08°40' W 016°13'713.3
2018-Jan-21 18:00N 08°45' W 016°18'713.6
2018-Jan-21 17:30N 08°50' W 016°22'713.7
2018-Jan-21 17:00N 08°55' W 016°27'1413.3
2018-Jan-21 15:57N 09°06' W 016°36'713.4
2018-Jan-21 15:27N 09°11' W 016°40'613.3
2018-Jan-21 14:59N 09°16' W 016°45'613.0
2018-Jan-21 14:29N 09°21' W 016°49'713.3
2018-Jan-21 14:00N 09°25' W 016°53'  
2018-Jan-17 23:30N 27°38' W 015°13'  
2018-Jan-12 14:57N 43°21' W 003°02'0 0.0
2018-Jan-12 14:30N 43°21' W 003°02'0 0.0
2018-Jan-12 14:00N 43°21' W 003°02'0 0.0
2018-Jan-12 13:30N 43°21' W 003°02'0 0.0
2018-Jan-12 13:00N 43°21' W 003°02'0 0.0
2018-Jan-12 12:30N 43°21' W 003°02'0 0.0
2018-Jan-12 12:00N 43°21' W 003°02'0 0.0
2018-Jan-12 11:30N 43°21' W 003°02'0 0.0
2018-Jan-12 11:00N 43°21' W 003°02'0 0.0
2018-Jan-12 10:30N 43°21' W 003°02'0 0.0
2018-Jan-12 10:00N 43°21' W 003°02'0 0.0
2018-Jan-12 09:30N 43°21' W 003°02'0 0.0
2018-Jan-12 09:00N 43°21' W 003°02'0 0.0
2018-Jan-12 08:30N 43°21' W 003°02'0 0.0
2018-Jan-12 08:00N 43°21' W 003°02'0 0.0
2018-Jan-12 07:30N 43°21' W 003°02'0 0.0
2018-Jan-12 07:00N 43°21' W 003°02'0 0.0
2018-Jan-12 06:30N 43°21' W 003°02'0 0.0
2018-Jan-12 06:00N 43°21' W 003°02'0 0.0
2018-Jan-12 05:30N 43°21' W 003°02'0 0.0
2018-Jan-12 05:00N 43°21' W 003°02'0 0.0
2018-Jan-12 04:30N 43°21' W 003°02'0 0.0
2018-Jan-12 04:00N 43°21' W 003°02'0 0.0
2018-Jan-12 03:30N 43°21' W 003°02'  
Track history (hours):
 
Tides and Currents Weather Stations Pressure Air Temp Water Temp Dewpoint Dewpoint Depression Visibility Wind Speed Wind Dir Waves Ship Positions

Kang Man

Last reported at 2018-Jan-22 03:20 UTC. Time now 2018-Jan-22 22:12 UTC.
Position N 07°08' W 014°53'.

Length 190 m; draft 10.7 m.

Type: Cargo ship. MMSI: 477360500.

Date/timePositionNaut miles runAvg speedWind from/ knotsBaromVisibWave heightAir tempDewpointWater temp
2018-Jan-22 03:20N 07°08' W 014°53'514.4
2018-Jan-22 03:00N 07°12' W 014°56'714.3
2018-Jan-22 02:30N 07°17' W 015°01'714.3
2018-Jan-22 02:00N 07°23' W 015°06'714.4
2018-Jan-22 01:30N 07°28' W 015°10'2113.9
2018-Jan-21 23:58N 07°45' W 015°24'1914.6
2018-Jan-21 22:39N 07°59' W 015°37'1 4.9
2018-Jan-21 22:30N 07°60' W 015°38'714.8
2018-Jan-21 22:00N 08°05' W 015°42'612.2
2018-Jan-21 21:30N 08°10' W 015°46'914.3
2018-Jan-21 20:54N 08°16' W 015°52'511.9
2018-Jan-21 20:30N 08°20' W 015°56'713.5
2018-Jan-21 20:00N 08°25' W 016°00'813.5
2018-Jan-21 19:26N 08°30' W 016°05'613.4
2018-Jan-21 19:00N 08°35' W 016°09'713.3
2018-Jan-21 18:30N 08°40' W 016°13'713.3
2018-Jan-21 18:00N 08°45' W 016°18'713.6
2018-Jan-21 17:30N 08°50' W 016°22'713.7
2018-Jan-21 17:00N 08°55' W 016°27'1413.3
2018-Jan-21 15:57N 09°06' W 016°36'713.4
2018-Jan-21 15:27N 09°11' W 016°40'613.3
2018-Jan-21 14:59N 09°16' W 016°45'613.0
2018-Jan-21 14:29N 09°21' W 016°49'713.3
2018-Jan-21 14:00N 09°25' W 016°53'  
2018-Jan-17 23:30N 27°38' W 015°13'  
2018-Jan-12 14:57N 43°21' W 003°02'0 0.0
2018-Jan-12 14:30N 43°21' W 003°02'0 0.0
2018-Jan-12 14:00N 43°21' W 003°02'0 0.0
2018-Jan-12 13:30N 43°21' W 003°02'0 0.0
2018-Jan-12 13:00N 43°21' W 003°02'0 0.0
2018-Jan-12 12:30N 43°21' W 003°02'0 0.0
2018-Jan-12 12:00N 43°21' W 003°02'0 0.0
2018-Jan-12 11:30N 43°21' W 003°02'0 0.0
2018-Jan-12 11:00N 43°21' W 003°02'0 0.0
2018-Jan-12 10:30N 43°21' W 003°02'0 0.0
2018-Jan-12 10:00N 43°21' W 003°02'0 0.0
2018-Jan-12 09:30N 43°21' W 003°02'0 0.0
2018-Jan-12 09:00N 43°21' W 003°02'0 0.0
2018-Jan-12 08:30N 43°21' W 003°02'0 0.0
2018-Jan-12 08:00N 43°21' W 003°02'0 0.0
2018-Jan-12 07:30N 43°21' W 003°02'0 0.0
2018-Jan-12 07:00N 43°21' W 003°02'0 0.0
2018-Jan-12 06:30N 43°21' W 003°02'0 0.0
2018-Jan-12 06:00N 43°21' W 003°02'0 0.0
2018-Jan-12 05:30N 43°21' W 003°02'0 0.0
2018-Jan-12 05:00N 43°21' W 003°02'0 0.0
2018-Jan-12 04:30N 43°21' W 003°02'0 0.0
2018-Jan-12 04:00N 43°21' W 003°02'0 0.0
2018-Jan-12 03:30N 43°21' W 003°02'  

Dump ship's entire track history